TAF Text Data
IDs:
Format:
Raw Decoded Include METAR

Data at: 2129 UTC 01 Dec 2021

KSNY 011720Z 0118/0218 29016G26KT P6SM BKN200
  FM012300 28010KT P6SM SCT200